sensor_id;sensor_type;location;lat;lon;timestamp;P1;durP1;ratioP1;P2;durP2;ratioP2
39930;SDS011;26635;-35.248;149.138;2023-06-22T00:00:18;5.13;;;2.38;;
39930;SDS011;26635;-35.248;149.138;2023-06-22T00:02:50;4.22;;;2.03;;
39930;SDS011;26635;-35.248;149.138;2023-06-22T00:05:22;6.45;;;2.40;;
39930;SDS011;26635;-35.248;149.138;2023-06-22T00:07:53;4.85;;;2.55;;
39930;SDS011;26635;-35.248;149.138;2023-06-22T00:10:24;5.03;;;3.05;;
39930;SDS011;26635;-35.248;149.138;2023-06-22T00:12:55;4.50;;;2.33;;
39930;SDS011;26635;-35.248;149.138;2023-06-22T00:15:28;6.22;;;2.47;;
39930;SDS011;26635;-35.248;149.138;2023-06-22T00:17:59;5.03;;;2.05;;
39930;SDS011;26635;-35.248;149.138;2023-06-22T00:20:31;3.65;;;1.73;;
39930;SDS011;26635;-35.248;149.138;2023-06-22T00:23:06;2.42;;;1.60;;
39930;SDS011;26635;-35.248;149.138;2023-06-22T00:25:38;3.55;;;2.00;;
39930;SDS011;26635;-35.248;149.138;2023-06-22T00:28:12;4.53;;;2.10;;
39930;SDS011;26635;-35.248;149.138;2023-06-22T00:30:42;3.33;;;1.95;;
39930;SDS011;26635;-35.248;149.138;2023-06-22T00:33:14;5.95;;;1.80;;
39930;SDS011;26635;-35.248;149.138;2023-06-22T00:35:45;4.65;;;1.38;;
39930;SDS011;26635;-35.248;149.138;2023-06-22T00:38:16;5.22;;;1.95;;
39930;SDS011;26635;-35.248;149.138;2023-06-22T00:40:56;4.90;;;2.00;;
39930;SDS011;26635;-35.248;149.138;2023-06-22T00:43:27;3.63;;;2.22;;
39930;SDS011;26635;-35.248;149.138;2023-06-22T00:45:59;3.67;;;1.55;;
39930;SDS011;26635;-35.248;149.138;2023-06-22T00:48:32;3.05;;;1.17;;
39930;SDS011;26635;-35.248;149.138;2023-06-22T00:51:05;4.10;;;1.45;;
39930;SDS011;26635;-35.248;149.138;2023-06-22T00:53:37;3.40;;;1.33;;
39930;SDS011;26635;-35.248;149.138;2023-06-22T00:56:11;3.22;;;1.40;;
39930;SDS011;26635;-35.248;149.138;2023-06-22T00:58:41;2.90;;;1.10;;
39930;SDS011;26635;-35.248;149.138;2023-06-22T01:01:13;4.03;;;1.42;;
39930;SDS011;26635;-35.248;149.138;2023-06-22T01:03:45;3.58;;;1.25;;
39930;SDS011;26635;-35.248;149.138;2023-06-22T01:06:19;2.47;;;1.13;;
39930;SDS011;26635;-35.248;149.138;2023-06-22T01:09:02;8.15;;;1.38;;
39930;SDS011;26635;-35.248;149.138;2023-06-22T01:11:50;2.88;;;1.15;;
39930;SDS011;26635;-35.248;149.138;2023-06-22T01:17:09;4.20;;;1.95;;
39930;SDS011;26635;-35.248;149.138;2023-06-22T01:19:46;3.28;;;1.40;;
39930;SDS011;26635;-35.248;149.138;2023-06-22T01:22:27;3.65;;;2.03;;
39930;SDS011;26635;-35.248;149.138;2023-06-22T01:25:15;3.28;;;1.48;;
39930;SDS011;26635;-35.248;149.138;2023-06-22T01:28:45;3.35;;;1.40;;
39930;SDS011;26635;-35.248;149.138;2023-06-22T01:31:15;2.72;;;1.27;;
39930;SDS011;26635;-35.248;149.138;2023-06-22T01:33:52;1.73;;;0.90;;
39930;SDS011;26635;-35.248;149.138;2023-06-22T01:36:26;2.15;;;1.02;;
39930;SDS011;26635;-35.248;149.138;2023-06-22T01:39:03;3.33;;;1.05;;
39930;SDS011;26635;-35.248;149.138;2023-06-22T01:41:37;2.83;;;1.10;;
39930;SDS011;26635;-35.248;149.138;2023-06-22T01:44:09;3.25;;;1.30;;
39930;SDS011;26635;-35.248;149.138;2023-06-22T01:46:41;3.90;;;1.00;;
39930;SDS011;26635;-35.248;149.138;2023-06-22T01:49:14;2.15;;;1.10;;
39930;SDS011;26635;-35.248;149.138;2023-06-22T01:51:48;2.30;;;1.00;;
39930;SDS011;26635;-35.248;149.138;2023-06-22T01:55:02;1.98;;;1.00;;
39930;SDS011;26635;-35.248;149.138;2023-06-22T02:01:52;3.38;;;1.25;;
39930;SDS011;26635;-35.248;149.138;2023-06-22T02:05:04;3.75;;;1.23;;
39930;SDS011;26635;-35.248;149.138;2023-06-22T02:07:46;4.72;;;1.77;;
39930;SDS011;26635;-35.248;149.138;2023-06-22T02:10:29;4.13;;;1.90;;
39930;SDS011;26635;-35.248;149.138;2023-06-22T02:13:04;2.90;;;1.58;;
39930;SDS011;26635;-35.248;149.138;2023-06-22T02:15:37;3.35;;;2.00;;
39930;SDS011;26635;-35.248;149.138;2023-06-22T02:18:08;5.35;;;1.15;;
39930;SDS011;26635;-35.248;149.138;2023-06-22T02:20:41;3.03;;;1.55;;
39930;SDS011;26635;-35.248;149.138;2023-06-22T02:23:12;3.58;;;1.70;;
39930;SDS011;26635;-35.248;149.138;2023-06-22T02:25:45;4.85;;;1.92;;
39930;SDS011;26635;-35.248;149.138;2023-06-22T02:28:16;3.60;;;1.67;;
39930;SDS011;26635;-35.248;149.138;2023-06-22T02:30:47;2.67;;;1.17;;
39930;SDS011;26635;-35.248;149.138;2023-06-22T02:33:18;2.92;;;1.55;;
39930;SDS011;26635;-35.248;149.138;2023-06-22T02:35:50;2.88;;;1.50;;
39930;SDS011;26635;-35.248;149.138;2023-06-22T02:38:21;4.13;;;1.52;;
39930;SDS011;26635;-35.248;149.138;2023-06-22T02:40:55;5.53;;;1.92;;
39930;SDS011;26635;-35.248;149.138;2023-06-22T02:43:26;3.67;;;1.80;;
39930;SDS011;26635;-35.248;149.138;2023-06-22T02:45:57;2.17;;;1.20;;
39930;SDS011;26635;-35.248;149.138;2023-06-22T02:48:28;4.70;;;1.40;;
39930;SDS011;26635;-35.248;149.138;2023-06-22T02:50:58;4.55;;;1.42;;
39930;SDS011;26635;-35.248;149.138;2023-06-22T02:53:30;7.53;;;1.90;;
39930;SDS011;26635;-35.248;149.138;2023-06-22T02:56:04;4.10;;;1.20;;
39930;SDS011;26635;-35.248;149.138;2023-06-22T02:58:36;2.33;;;1.15;;
39930;SDS011;26635;-35.248;149.138;2023-06-22T03:01:08;2.88;;;1.63;;
39930;SDS011;26635;-35.248;149.138;2023-06-22T03:03:40;5.85;;;1.30;;
39930;SDS011;26635;-35.248;149.138;2023-06-22T03:06:11;2.85;;;1.40;;
39930;SDS011;26635;-35.248;149.138;2023-06-22T03:08:43;3.63;;;1.80;;
39930;SDS011;26635;-35.248;149.138;2023-06-22T03:11:14;4.55;;;2.30;;
39930;SDS011;26635;-35.248;149.138;2023-06-22T03:13:45;4.13;;;2.03;;
39930;SDS011;26635;-35.248;149.138;2023-06-22T03:16:16;5.13;;;2.42;;
39930;SDS011;26635;-35.248;149.138;2023-06-22T03:18:47;6.55;;;2.28;;
39930;SDS011;26635;-35.248;149.138;2023-06-22T03:21:17;4.93;;;2.25;;
39930;SDS011;26635;-35.248;149.138;2023-06-22T03:23:49;2.63;;;1.50;;
39930;SDS011;26635;-35.248;149.138;2023-06-22T03:26:19;4.05;;;2.00;;
39930;SDS011;26635;-35.248;149.138;2023-06-22T03:28:52;4.32;;;1.45;;
39930;SDS011;26635;-35.248;149.138;2023-06-22T03:31:24;3.17;;;1.30;;
39930;SDS011;26635;-35.248;149.138;2023-06-22T03:33:56;3.78;;;1.60;;
39930;SDS011;26635;-35.248;149.138;2023-06-22T03:36:27;3.28;;;1.55;;
39930;SDS011;26635;-35.248;149.138;2023-06-22T03:38:58;3.95;;;1.60;;
39930;SDS011;26635;-35.248;149.138;2023-06-22T03:41:29;3.53;;;1.67;;
39930;SDS011;26635;-35.248;149.138;2023-06-22T03:44:00;3.50;;;1.90;;
39930;SDS011;26635;-35.248;149.138;2023-06-22T03:46:31;4.18;;;1.83;;
39930;SDS011;26635;-35.248;149.138;2023-06-22T03:49:04;3.15;;;1.83;;
39930;SDS011;26635;-35.248;149.138;2023-06-22T03:51:35;5.32;;;2.20;;
39930;SDS011;26635;-35.248;149.138;2023-06-22T03:54:07;4.20;;;1.52;;
39930;SDS011;26635;-35.248;149.138;2023-06-22T03:56:39;3.85;;;1.77;;
39930;SDS011;26635;-35.248;149.138;2023-06-22T03:59:11;2.72;;;1.70;;
39930;SDS011;26635;-35.248;149.138;2023-06-22T04:01:42;4.55;;;1.80;;
39930;SDS011;26635;-35.248;149.138;2023-06-22T04:04:15;3.40;;;1.42;;
39930;SDS011;26635;-35.248;149.138;2023-06-22T04:06:50;2.50;;;1.30;;
39930;SDS011;26635;-35.248;149.138;2023-06-22T04:09:21;4.32;;;1.73;;
39930;SDS011;26635;-35.248;149.138;2023-06-22T04:11:52;3.03;;;1.73;;
39930;SDS011;26635;-35.248;149.138;2023-06-22T04:14:25;4.55;;;1.73;;
39930;SDS011;26635;-35.248;149.138;2023-06-22T04:16:57;3.78;;;1.75;;
39930;SDS011;26635;-35.248;149.138;2023-06-22T04:19:28;2.65;;;1.25;;
39930;SDS011;26635;-35.248;149.138;2023-06-22T04:22:00;2.65;;;1.20;;
39930;SDS011;26635;-35.248;149.138;2023-06-22T04:24:31;8.70;;;1.63;;
39930;SDS011;26635;-35.248;149.138;2023-06-22T04:27:01;2.08;;;1.17;;
39930;SDS011;26635;-35.248;149.138;2023-06-22T04:29:32;4.45;;;1.65;;
39930;SDS011;26635;-35.248;149.138;2023-06-22T04:32:03;3.25;;;1.40;;
39930;SDS011;26635;-35.248;149.138;2023-06-22T04:34:35;3.70;;;2.05;;
39930;SDS011;26635;-35.248;149.138;2023-06-22T04:37:07;2.95;;;1.95;;
39930;SDS011;26635;-35.248;149.138;2023-06-22T04:39:38;3.90;;;2.05;;
39930;SDS011;26635;-35.248;149.138;2023-06-22T04:42:09;5.47;;;1.63;;
39930;SDS011;26635;-35.248;149.138;2023-06-22T04:44:40;3.40;;;1.80;;
39930;SDS011;26635;-35.248;149.138;2023-06-22T04:47:11;13.07;;;2.13;;
39930;SDS011;26635;-35.248;149.138;2023-06-22T04:49:42;4.15;;;2.13;;
39930;SDS011;26635;-35.248;149.138;2023-06-22T04:52:13;3.65;;;1.80;;
39930;SDS011;26635;-35.248;149.138;2023-06-22T04:54:46;4.10;;;2.00;;
39930;SDS011;26635;-35.248;149.138;2023-06-22T04:57:20;5.00;;;1.83;;
39930;SDS011;26635;-35.248;149.138;2023-06-22T05:00:02;3.10;;;1.75;;
39930;SDS011;26635;-35.248;149.138;2023-06-22T05:02:46;5.95;;;2.15;;
39930;SDS011;26635;-35.248;149.138;2023-06-22T05:05:24;4.10;;;1.98;;
39930;SDS011;26635;-35.248;149.138;2023-06-22T05:07:56;5.32;;;2.03;;
39930;SDS011;26635;-35.248;149.138;2023-06-22T05:10:31;4.97;;;2.13;;
39930;SDS011;26635;-35.248;149.138;2023-06-22T05:13:02;5.13;;;2.47;;
39930;SDS011;26635;-35.248;149.138;2023-06-22T05:15:33;3.13;;;1.73;;
39930;SDS011;26635;-35.248;149.138;2023-06-22T05:18:09;3.25;;;1.73;;
39930;SDS011;26635;-35.248;149.138;2023-06-22T05:20:41;3.70;;;1.65;;
39930;SDS011;26635;-35.248;149.138;2023-06-22T05:23:11;2.33;;;1.25;;
39930;SDS011;26635;-35.248;149.138;2023-06-22T05:25:42;3.00;;;1.67;;
39930;SDS011;26635;-35.248;149.138;2023-06-22T05:28:15;4.72;;;1.63;;
39930;SDS011;26635;-35.248;149.138;2023-06-22T05:30:45;4.05;;;1.60;;
39930;SDS011;26635;-35.248;149.138;2023-06-22T05:33:17;4.88;;;1.40;;
39930;SDS011;26635;-35.248;149.138;2023-06-22T05:35:48;4.13;;;1.50;;
39930;SDS011;26635;-35.248;149.138;2023-06-22T05:39:10;4.18;;;2.03;;
39930;SDS011;26635;-35.248;149.138;2023-06-22T05:41:45;5.07;;;2.03;;
39930;SDS011;26635;-35.248;149.138;2023-06-22T05:44:18;7.63;;;1.98;;
39930;SDS011;26635;-35.248;149.138;2023-06-22T05:46:49;4.25;;;2.08;;
39930;SDS011;26635;-35.248;149.138;2023-06-22T05:49:20;5.65;;;2.08;;
39930;SDS011;26635;-35.248;149.138;2023-06-22T05:51:52;4.55;;;2.20;;
39930;SDS011;26635;-35.248;149.138;2023-06-22T05:54:23;3.67;;;1.42;;
39930;SDS011;26635;-35.248;149.138;2023-06-22T05:56:54;5.05;;;1.90;;
39930;SDS011;26635;-35.248;149.138;2023-06-22T05:59:25;5.47;;;1.77;;
39930;SDS011;26635;-35.248;149.138;2023-06-22T06:01:56;3.55;;;1.65;;
39930;SDS011;26635;-35.248;149.138;2023-06-22T06:04:27;4.03;;;1.70;;
39930;SDS011;26635;-35.248;149.138;2023-06-22T06:06:58;4.45;;;1.95;;
39930;SDS011;26635;-35.248;149.138;2023-06-22T06:09:30;5.82;;;3.10;;
39930;SDS011;26635;-35.248;149.138;2023-06-22T06:12:02;8.40;;;2.63;;
39930;SDS011;26635;-35.248;149.138;2023-06-22T06:14:33;3.92;;;2.15;;
39930;SDS011;26635;-35.248;149.138;2023-06-22T06:17:05;6.40;;;2.35;;
39930;SDS011;26635;-35.248;149.138;2023-06-22T06:19:37;3.42;;;1.90;;
39930;SDS011;26635;-35.248;149.138;2023-06-22T06:22:10;3.45;;;1.83;;
39930;SDS011;26635;-35.248;149.138;2023-06-22T06:24:40;5.28;;;1.88;;
39930;SDS011;26635;-35.248;149.138;2023-06-22T06:27:11;4.90;;;1.98;;
39930;SDS011;26635;-35.248;149.138;2023-06-22T06:29:43;4.63;;;2.10;;
39930;SDS011;26635;-35.248;149.138;2023-06-22T06:32:16;4.80;;;1.33;;
39930;SDS011;26635;-35.248;149.138;2023-06-22T06:34:47;3.53;;;1.67;;
39930;SDS011;26635;-35.248;149.138;2023-06-22T06:37:18;4.07;;;1.92;;
39930;SDS011;26635;-35.248;149.138;2023-06-22T06:39:51;5.68;;;2.15;;
39930;SDS011;26635;-35.248;149.138;2023-06-22T06:42:21;4.95;;;1.58;;
39930;SDS011;26635;-35.248;149.138;2023-06-22T06:44:53;6.63;;;2.30;;
39930;SDS011;26635;-35.248;149.138;2023-06-22T06:47:24;4.18;;;2.10;;
39930;SDS011;26635;-35.248;149.138;2023-06-22T06:49:55;4.70;;;2.17;;
39930;SDS011;26635;-35.248;149.138;2023-06-22T06:52:27;5.18;;;2.80;;
39930;SDS011;26635;-35.248;149.138;2023-06-22T06:54:58;5.20;;;2.60;;
39930;SDS011;26635;-35.248;149.138;2023-06-22T06:57:29;5.97;;;2.25;;
39930;SDS011;26635;-35.248;149.138;2023-06-22T07:00:01;4.30;;;2.13;;
39930;SDS011;26635;-35.248;149.138;2023-06-22T07:02:38;3.78;;;2.33;;
39930;SDS011;26635;-35.248;149.138;2023-06-22T07:05:11;4.18;;;2.17;;
39930;SDS011;26635;-35.248;149.138;2023-06-22T07:07:42;4.40;;;2.28;;
39930;SDS011;26635;-35.248;149.138;2023-06-22T07:10:12;5.35;;;2.88;;
39930;SDS011;26635;-35.248;149.138;2023-06-22T07:12:43;6.00;;;3.08;;
39930;SDS011;26635;-35.248;149.138;2023-06-22T07:15:14;4.70;;;2.67;;
39930;SDS011;26635;-35.248;149.138;2023-06-22T07:17:44;8.68;;;3.60;;
39930;SDS011;26635;-35.248;149.138;2023-06-22T07:20:15;12.30;;;4.28;;
39930;SDS011;26635;-35.248;149.138;2023-06-22T07:22:46;10.27;;;4.25;;
39930;SDS011;26635;-35.248;149.138;2023-06-22T07:25:16;7.70;;;4.78;;
39930;SDS011;26635;-35.248;149.138;2023-06-22T07:27:57;10.77;;;4.60;;
39930;SDS011;26635;-35.248;149.138;2023-06-22T07:30:32;7.22;;;4.35;;
39930;SDS011;26635;-35.248;149.138;2023-06-22T07:33:03;10.27;;;5.40;;
39930;SDS011;26635;-35.248;149.138;2023-06-22T07:35:38;8.27;;;4.07;;
39930;SDS011;26635;-35.248;149.138;2023-06-22T07:38:09;10.52;;;5.40;;
39930;SDS011;26635;-35.248;149.138;2023-06-22T07:40:43;11.45;;;5.85;;
39930;SDS011;26635;-35.248;149.138;2023-06-22T07:43:14;10.82;;;5.50;;
39930;SDS011;26635;-35.248;149.138;2023-06-22T07:45:48;9.25;;;5.10;;
39930;SDS011;26635;-35.248;149.138;2023-06-22T07:48:22;9.18;;;4.93;;
39930;SDS011;26635;-35.248;149.138;2023-06-22T07:50:53;12.40;;;4.97;;
39930;SDS011;26635;-35.248;149.138;2023-06-22T07:53:23;7.82;;;4.78;;
39930;SDS011;26635;-35.248;149.138;2023-06-22T07:55:53;9.20;;;5.53;;
39930;SDS011;26635;-35.248;149.138;2023-06-22T07:58:24;8.77;;;5.63;;
39930;SDS011;26635;-35.248;149.138;2023-06-22T08:00:54;8.93;;;5.78;;
39930;SDS011;26635;-35.248;149.138;2023-06-22T08:03:25;8.57;;;5.70;;
39930;SDS011;26635;-35.248;149.138;2023-06-22T08:05:55;9.43;;;5.85;;
39930;SDS011;26635;-35.248;149.138;2023-06-22T08:08:26;10.38;;;7.93;;
39930;SDS011;26635;-35.248;149.138;2023-06-22T08:10:59;10.43;;;6.47;;
39930;SDS011;26635;-35.248;149.138;2023-06-22T08:13:29;10.30;;;6.60;;
39930;SDS011;26635;-35.248;149.138;2023-06-22T08:16:03;11.90;;;6.63;;
39930;SDS011;26635;-35.248;149.138;2023-06-22T08:18:39;9.85;;;7.20;;
39930;SDS011;26635;-35.248;149.138;2023-06-22T08:21:09;9.27;;;6.20;;
39930;SDS011;26635;-35.248;149.138;2023-06-22T08:23:40;10.00;;;6.95;;
39930;SDS011;26635;-35.248;149.138;2023-06-22T08:26:10;11.98;;;6.93;;
39930;SDS011;26635;-35.248;149.138;2023-06-22T08:28:42;13.25;;;7.32;;
39930;SDS011;26635;-35.248;149.138;2023-06-22T08:31:16;10.15;;;6.47;;
39930;SDS011;26635;-35.248;149.138;2023-06-22T08:33:48;13.15;;;8.23;;
39930;SDS011;26635;-35.248;149.138;2023-06-22T08:36:19;12.73;;;7.95;;
39930;SDS011;26635;-35.248;149.138;2023-06-22T08:38:51;13.93;;;6.80;;
39930;SDS011;26635;-35.248;149.138;2023-06-22T08:41:28;12.93;;;7.10;;
39930;SDS011;26635;-35.248;149.138;2023-06-22T08:43:59;10.30;;;7.32;;
39930;SDS011;26635;-35.248;149.138;2023-06-22T08:46:31;12.98;;;7.43;;
39930;SDS011;26635;-35.248;149.138;2023-06-22T08:49:04;12.57;;;7.18;;
39930;SDS011;26635;-35.248;149.138;2023-06-22T08:51:36;8.82;;;6.55;;
39930;SDS011;26635;-35.248;149.138;2023-06-22T08:54:08;9.13;;;5.90;;
39930;SDS011;26635;-35.248;149.138;2023-06-22T08:56:39;11.77;;;6.55;;
39930;SDS011;26635;-35.248;149.138;2023-06-22T08:59:14;12.50;;;6.55;;
39930;SDS011;26635;-35.248;149.138;2023-06-22T09:01:45;9.23;;;6.65;;
39930;SDS011;26635;-35.248;149.138;2023-06-22T09:04:17;10.35;;;5.75;;
39930;SDS011;26635;-35.248;149.138;2023-06-22T09:06:51;10.32;;;5.53;;
39930;SDS011;26635;-35.248;149.138;2023-06-22T09:09:22;10.85;;;5.22;;
39930;SDS011;26635;-35.248;149.138;2023-06-22T09:11:52;11.50;;;5.68;;
39930;SDS011;26635;-35.248;149.138;2023-06-22T09:14:25;7.00;;;4.05;;
39930;SDS011;26635;-35.248;149.138;2023-06-22T09:16:55;7.05;;;3.88;;
39930;SDS011;26635;-35.248;149.138;2023-06-22T09:19:26;6.35;;;3.42;;
39930;SDS011;26635;-35.248;149.138;2023-06-22T09:21:58;4.85;;;3.28;;
39930;SDS011;26635;-35.248;149.138;2023-06-22T09:24:29;7.90;;;3.78;;
39930;SDS011;26635;-35.248;149.138;2023-06-22T09:27:00;4.55;;;3.15;;
39930;SDS011;26635;-35.248;149.138;2023-06-22T09:29:32;5.85;;;3.10;;
39930;SDS011;26635;-35.248;149.138;2023-06-22T09:32:03;5.85;;;3.45;;
39930;SDS011;26635;-35.248;149.138;2023-06-22T09:34:35;5.57;;;3.20;;
39930;SDS011;26635;-35.248;149.138;2023-06-22T09:37:06;6.03;;;4.03;;
39930;SDS011;26635;-35.248;149.138;2023-06-22T09:39:38;4.57;;;2.90;;
39930;SDS011;26635;-35.248;149.138;2023-06-22T09:42:11;6.13;;;3.40;;
39930;SDS011;26635;-35.248;149.138;2023-06-22T09:44:42;5.22;;;3.78;;
39930;SDS011;26635;-35.248;149.138;2023-06-22T09:47:14;5.68;;;3.00;;
39930;SDS011;26635;-35.248;149.138;2023-06-22T09:49:45;5.55;;;4.10;;
39930;SDS011;26635;-35.248;149.138;2023-06-22T09:52:16;5.28;;;3.38;;
39930;SDS011;26635;-35.248;149.138;2023-06-22T09:54:51;9.02;;;4.88;;
39930;SDS011;26635;-35.248;149.138;2023-06-22T09:57:22;7.50;;;4.53;;
39930;SDS011;26635;-35.248;149.138;2023-06-22T09:59:53;7.93;;;5.78;;
39930;SDS011;26635;-35.248;149.138;2023-06-22T10:02:26;8.98;;;5.38;;
39930;SDS011;26635;-35.248;149.138;2023-06-22T10:04:58;7.32;;;4.88;;
39930;SDS011;26635;-35.248;149.138;2023-06-22T10:07:29;8.40;;;5.55;;
39930;SDS011;26635;-35.248;149.138;2023-06-22T10:10:00;10.52;;;6.25;;
39930;SDS011;26635;-35.248;149.138;2023-06-22T10:12:31;11.05;;;5.72;;
39930;SDS011;26635;-35.248;149.138;2023-06-22T10:15:02;13.30;;;6.75;;
39930;SDS011;26635;-35.248;149.138;2023-06-22T10:17:35;8.20;;;5.20;;
39930;SDS011;26635;-35.248;149.138;2023-06-22T10:20:07;8.13;;;5.13;;
39930;SDS011;26635;-35.248;149.138;2023-06-22T10:22:41;13.25;;;5.68;;
39930;SDS011;26635;-35.248;149.138;2023-06-22T10:25:14;11.10;;;6.32;;
39930;SDS011;26635;-35.248;149.138;2023-06-22T10:27:45;8.95;;;5.35;;
39930;SDS011;26635;-35.248;149.138;2023-06-22T10:30:16;11.38;;;5.80;;
39930;SDS011;26635;-35.248;149.138;2023-06-22T10:32:47;8.98;;;6.38;;
39930;SDS011;26635;-35.248;149.138;2023-06-22T10:35:20;7.70;;;5.03;;
39930;SDS011;26635;-35.248;149.138;2023-06-22T10:37:51;8.98;;;4.25;;
39930;SDS011;26635;-35.248;149.138;2023-06-22T10:40:25;5.63;;;3.60;;
39930;SDS011;26635;-35.248;149.138;2023-06-22T10:42:56;6.80;;;4.85;;
39930;SDS011;26635;-35.248;149.138;2023-06-22T10:45:26;9.98;;;5.13;;
39930;SDS011;26635;-35.248;149.138;2023-06-22T10:47:58;11.75;;;5.80;;
39930;SDS011;26635;-35.248;149.138;2023-06-22T10:50:28;8.02;;;4.25;;
39930;SDS011;26635;-35.248;149.138;2023-06-22T10:52:59;6.93;;;3.80;;
39930;SDS011;26635;-35.248;149.138;2023-06-22T10:55:31;6.00;;;3.60;;
39930;SDS011;26635;-35.248;149.138;2023-06-22T10:58:21;5.93;;;3.15;;
39930;SDS011;26635;-35.248;149.138;2023-06-22T11:00:52;6.38;;;3.55;;
39930;SDS011;26635;-35.248;149.138;2023-06-22T11:03:23;7.53;;;4.22;;
39930;SDS011;26635;-35.248;149.138;2023-06-22T11:05:54;9.10;;;4.82;;
39930;SDS011;26635;-35.248;149.138;2023-06-22T11:08:26;8.32;;;3.92;;
39930;SDS011;26635;-35.248;149.138;2023-06-22T11:10:57;8.10;;;3.63;;
39930;SDS011;26635;-35.248;149.138;2023-06-22T11:13:28;7.22;;;3.63;;
39930;SDS011;26635;-35.248;149.138;2023-06-22T11:15:59;5.53;;;2.88;;
39930;SDS011;26635;-35.248;149.138;2023-06-22T11:18:31;5.38;;;3.50;;
39930;SDS011;26635;-35.248;149.138;2023-06-22T11:21:02;5.53;;;3.33;;
39930;SDS011;26635;-35.248;149.138;2023-06-22T11:23:33;6.43;;;3.75;;
39930;SDS011;26635;-35.248;149.138;2023-06-22T11:26:04;6.95;;;3.72;;
39930;SDS011;26635;-35.248;149.138;2023-06-22T11:28:34;5.68;;;3.95;;
39930;SDS011;26635;-35.248;149.138;2023-06-22T11:31:05;10.52;;;4.53;;
39930;SDS011;26635;-35.248;149.138;2023-06-22T11:33:52;11.20;;;6.28;;
39930;SDS011;26635;-35.248;149.138;2023-06-22T11:36:24;8.70;;;4.78;;
39930;SDS011;26635;-35.248;149.138;2023-06-22T11:38:55;8.57;;;4.82;;
39930;SDS011;26635;-35.248;149.138;2023-06-22T11:41:26;7.90;;;5.45;;
39930;SDS011;26635;-35.248;149.138;2023-06-22T11:43:56;12.75;;;5.38;;
39930;SDS011;26635;-35.248;149.138;2023-06-22T11:46:27;6.28;;;4.32;;
39930;SDS011;26635;-35.248;149.138;2023-06-22T11:48:58;7.60;;;4.32;;
39930;SDS011;26635;-35.248;149.138;2023-06-22T11:51:28;7.53;;;3.90;;
39930;SDS011;26635;-35.248;149.138;2023-06-22T11:54:00;8.30;;;4.22;;
39930;SDS011;26635;-35.248;149.138;2023-06-22T11:56:32;8.00;;;5.10;;
39930;SDS011;26635;-35.248;149.138;2023-06-22T11:59:04;9.35;;;5.53;;
39930;SDS011;26635;-35.248;149.138;2023-06-22T12:01:35;9.55;;;5.90;;
39930;SDS011;26635;-35.248;149.138;2023-06-22T12:04:06;7.25;;;4.97;;
39930;SDS011;26635;-35.248;149.138;2023-06-22T12:06:39;9.45;;;5.97;;
39930;SDS011;26635;-35.248;149.138;2023-06-22T12:09:11;10.23;;;5.70;;
39930;SDS011;26635;-35.248;149.138;2023-06-22T12:11:43;9.63;;;5.43;;
39930;SDS011;26635;-35.248;149.138;2023-06-22T12:14:14;7.55;;;5.22;;
39930;SDS011;26635;-35.248;149.138;2023-06-22T12:16:45;7.93;;;4.93;;
39930;SDS011;26635;-35.248;149.138;2023-06-22T12:19:15;8.75;;;4.70;;
39930;SDS011;26635;-35.248;149.138;2023-06-22T12:21:45;7.43;;;4.80;;
39930;SDS011;26635;-35.248;149.138;2023-06-22T12:24:15;7.32;;;4.90;;
39930;SDS011;26635;-35.248;149.138;2023-06-22T12:26:49;8.82;;;4.95;;
39930;SDS011;26635;-35.248;149.138;2023-06-22T12:29:22;8.73;;;4.93;;
39930;SDS011;26635;-35.248;149.138;2023-06-22T12:31:53;6.68;;;4.57;;
39930;SDS011;26635;-35.248;149.138;2023-06-22T12:34:23;7.72;;;4.70;;
39930;SDS011;26635;-35.248;149.138;2023-06-22T12:36:53;6.00;;;4.22;;
39930;SDS011;26635;-35.248;149.138;2023-06-22T12:39:24;8.00;;;5.50;;
39930;SDS011;26635;-35.248;149.138;2023-06-22T12:41:54;7.97;;;4.38;;
39930;SDS011;26635;-35.248;149.138;2023-06-22T12:44:25;6.05;;;4.05;;
39930;SDS011;26635;-35.248;149.138;2023-06-22T12:46:55;6.95;;;4.47;;
39930;SDS011;26635;-35.248;149.138;2023-06-22T12:49:25;6.03;;;4.28;;
39930;SDS011;26635;-35.248;149.138;2023-06-22T12:51:56;6.80;;;4.40;;
39930;SDS011;26635;-35.248;149.138;2023-06-22T12:54:26;6.65;;;4.30;;
39930;SDS011;26635;-35.248;149.138;2023-06-22T12:57:09;6.35;;;4.72;;
39930;SDS011;26635;-35.248;149.138;2023-06-22T12:59:39;6.90;;;4.70;;
39930;SDS011;26635;-35.248;149.138;2023-06-22T13:02:10;8.93;;;5.47;;
39930;SDS011;26635;-35.248;149.138;2023-06-22T13:04:40;8.98;;;5.40;;
39930;SDS011;26635;-35.248;149.138;2023-06-22T13:07:11;9.95;;;5.90;;
39930;SDS011;26635;-35.248;149.138;2023-06-22T13:09:50;8.00;;;5.18;;
39930;SDS011;26635;-35.248;149.138;2023-06-22T13:12:21;8.43;;;5.32;;
39930;SDS011;26635;-35.248;149.138;2023-06-22T13:14:51;8.80;;;5.88;;
39930;SDS011;26635;-35.248;149.138;2023-06-22T13:17:22;11.43;;;6.95;;
39930;SDS011;26635;-35.248;149.138;2023-06-22T13:19:52;10.90;;;6.80;;
39930;SDS011;26635;-35.248;149.138;2023-06-22T13:22:29;12.25;;;7.95;;
39930;SDS011;26635;-35.248;149.138;2023-06-22T13:25:00;9.85;;;6.18;;
39930;SDS011;26635;-35.248;149.138;2023-06-22T13:27:31;10.80;;;6.47;;
39930;SDS011;26635;-35.248;149.138;2023-06-22T13:30:02;9.85;;;6.03;;
39930;SDS011;26635;-35.248;149.138;2023-06-22T13:32:32;12.65;;;7.07;;
39930;SDS011;26635;-35.248;149.138;2023-06-22T13:35:03;9.10;;;6.43;;
39930;SDS011;26635;-35.248;149.138;2023-06-22T13:37:34;10.13;;;6.05;;
39930;SDS011;26635;-35.248;149.138;2023-06-22T13:40:05;11.45;;;5.93;;
39930;SDS011;26635;-35.248;149.138;2023-06-22T13:42:36;9.77;;;5.70;;
39930;SDS011;26635;-35.248;149.138;2023-06-22T13:45:08;9.77;;;5.70;;
39930;SDS011;26635;-35.248;149.138;2023-06-22T13:47:39;10.75;;;6.13;;
39930;SDS011;26635;-35.248;149.138;2023-06-22T13:50:09;11.70;;;6.30;;
39930;SDS011;26635;-35.248;149.138;2023-06-22T13:52:41;10.80;;;6.40;;
39930;SDS011;26635;-35.248;149.138;2023-06-22T13:55:11;12.93;;;6.30;;
39930;SDS011;26635;-35.248;149.138;2023-06-22T13:57:43;9.45;;;6.97;;
39930;SDS011;26635;-35.248;149.138;2023-06-22T14:00:13;11.57;;;7.43;;
39930;SDS011;26635;-35.248;149.138;2023-06-22T14:02:44;12.65;;;7.95;;
39930;SDS011;26635;-35.248;149.138;2023-06-22T14:05:14;12.15;;;8.10;;
39930;SDS011;26635;-35.248;149.138;2023-06-22T14:07:45;10.98;;;7.45;;
39930;SDS011;26635;-35.248;149.138;2023-06-22T14:10:15;9.80;;;6.60;;
39930;SDS011;26635;-35.248;149.138;2023-06-22T14:12:45;12.18;;;7.70;;
39930;SDS011;26635;-35.248;149.138;2023-06-22T14:15:16;11.77;;;7.57;;
39930;SDS011;26635;-35.248;149.138;2023-06-22T14:17:47;10.07;;;6.47;;
39930;SDS011;26635;-35.248;149.138;2023-06-22T14:20:17;12.00;;;6.85;;
39930;SDS011;26635;-35.248;149.138;2023-06-22T14:22:48;13.23;;;8.32;;
39930;SDS011;26635;-35.248;149.138;2023-06-22T14:25:18;12.82;;;8.30;;
39930;SDS011;26635;-35.248;149.138;2023-06-22T14:27:48;11.13;;;6.95;;
39930;SDS011;26635;-35.248;149.138;2023-06-22T14:30:19;10.15;;;7.07;;
39930;SDS011;26635;-35.248;149.138;2023-06-22T14:32:49;10.05;;;6.82;;
39930;SDS011;26635;-35.248;149.138;2023-06-22T14:35:20;9.18;;;5.75;;
39930;SDS011;26635;-35.248;149.138;2023-06-22T14:37:51;9.88;;;6.30;;
39930;SDS011;26635;-35.248;149.138;2023-06-22T14:40:21;9.63;;;6.25;;
39930;SDS011;26635;-35.248;149.138;2023-06-22T14:42:52;9.63;;;6.03;;